createdAt,value
2022-11-07T00:00:10.628Z,10.7
2022-11-07T00:02:28.420Z,9.9
2022-11-07T00:04:46.078Z,9.4
2022-11-07T00:07:03.798Z,9.8
2022-11-07T00:09:21.486Z,9.1
2022-11-07T00:11:39.198Z,9.4
2022-11-07T00:13:57.411Z,9.1
2022-11-07T00:16:15.017Z,6.1
2022-11-07T00:18:32.698Z,10
2022-11-07T00:20:50.478Z,9.3
2022-11-07T00:23:08.501Z,8.9
2022-11-07T00:25:26.542Z,5.9
2022-11-07T00:27:44.467Z,5.9
2022-11-07T00:30:02.169Z,9.4
2022-11-07T00:32:20.158Z,10
2022-11-07T00:34:37.977Z,5.8
2022-11-07T00:36:55.735Z,9.9
2022-11-07T00:39:13.916Z,9.6
2022-11-07T00:41:31.769Z,5.8
2022-11-07T00:43:49.655Z,5.7
2022-11-07T00:46:07.336Z,9
2022-11-07T00:48:25.036Z,9.4
2022-11-07T00:50:43.068Z,9.1
2022-11-07T00:53:00.865Z,5.4
2022-11-07T00:55:18.946Z,9.4
2022-11-07T00:57:36.777Z,5.4
2022-11-07T00:59:54.488Z,9.2
2022-11-07T01:02:12.448Z,9.4
2022-11-07T01:04:30.060Z,8.3
2022-11-07T01:06:48.001Z,8.7
2022-11-07T01:09:06.021Z,5.3
2022-11-07T01:11:24.197Z,4.9
2022-11-07T01:13:42.052Z,5.2
2022-11-07T01:15:59.808Z,8.7
2022-11-07T01:18:17.640Z,9.6
2022-11-07T01:20:35.373Z,9.3
2022-11-07T01:22:53.072Z,8.6
2022-11-07T01:25:10.945Z,8.6
2022-11-07T01:27:28.698Z,8.9
2022-11-07T01:29:46.756Z,4.9
2022-11-07T01:32:04.597Z,5.1
2022-11-07T01:34:22.487Z,7.9
2022-11-07T01:36:40.105Z,8.8
2022-11-07T01:38:57.978Z,8
2022-11-07T01:41:15.619Z,8.3
2022-11-07T01:43:33.400Z,8.1
2022-11-07T01:45:51.152Z,8.2
2022-11-07T01:48:09.061Z,7.8
2022-11-07T01:50:26.981Z,4.7
2022-11-07T01:52:44.743Z,8.6
2022-11-07T01:55:02.384Z,8.4
2022-11-07T01:57:20.134Z,7.6
2022-11-07T01:59:38.199Z,8
2022-11-07T02:01:56.034Z,4.5
2022-11-07T02:04:13.695Z,8.3
2022-11-07T02:06:31.361Z,8
2022-11-07T02:08:49.069Z,7.8
2022-11-07T02:11:07.073Z,7.8
2022-11-07T02:13:24.518Z,8.1
2022-11-07T02:15:42.539Z,8.1
2022-11-07T02:18:00.301Z,4.8
2022-11-07T02:20:18.257Z,8.2
2022-11-07T02:22:36.106Z,8.8
2022-11-07T02:24:53.947Z,8.2
2022-11-07T02:27:11.682Z,8.1
2022-11-07T02:29:29.687Z,8.1
2022-11-07T02:31:47.604Z,8.8
2022-11-07T02:34:05.466Z,4.9
2022-11-07T02:36:23.486Z,8.9
2022-11-07T02:38:41.139Z,9
2022-11-07T02:40:59.178Z,8.6
2022-11-07T02:43:17.331Z,9.1
2022-11-07T02:45:34.793Z,8.2
2022-11-07T02:47:52.801Z,8.3
2022-11-07T02:50:10.774Z,5.1
2022-11-07T02:52:28.541Z,9.1
2022-11-07T02:54:46.591Z,8.7
2022-11-07T02:57:04.478Z,8.3
2022-11-07T02:59:26.748Z,8.8
2022-11-07T03:01:40.015Z,8.2
2022-11-07T03:03:57.649Z,8.2
2022-11-07T03:06:15.770Z,8.6
2022-11-07T03:08:33.337Z,8.1
2022-11-07T03:10:51.406Z,7.6
2022-11-07T03:13:09.109Z,7.9
2022-11-07T03:15:27.030Z,7.9
2022-11-07T03:17:44.809Z,7.4
2022-11-07T03:20:02.454Z,7.4
2022-11-07T03:22:20.669Z,7.4
2022-11-07T03:24:38.153Z,7.4
2022-11-07T03:26:56.128Z,7.7
2022-11-07T03:29:13.825Z,7.8
2022-11-07T03:31:32.070Z,7.9
2022-11-07T03:33:49.841Z,4.4
2022-11-07T03:36:07.804Z,7.8
2022-11-07T03:38:25.568Z,8.3
2022-11-07T03:40:43.577Z,7.7
2022-11-07T03:43:01.576Z,8.2
2022-11-07T03:45:19.020Z,7.5
2022-11-07T03:47:37.018Z,7.7
2022-11-07T03:49:54.732Z,7.3
2022-11-07T03:52:12.702Z,8.1
2022-11-07T03:54:30.497Z,7.6
2022-11-07T03:56:48.514Z,7.7
2022-11-07T03:59:06.244Z,7.1
2022-11-07T04:01:24.337Z,7.8
2022-11-07T04:03:42.031Z,8.2
2022-11-07T04:05:59.623Z,7
2022-11-07T04:08:17.768Z,7.2
2022-11-07T04:10:35.836Z,4.1
2022-11-07T04:12:53.941Z,4.4
2022-11-07T04:15:11.851Z,7.4
2022-11-07T04:17:29.682Z,8
2022-11-07T04:19:47.431Z,7.8
2022-11-07T04:22:05.443Z,7.6
2022-11-07T04:24:23.131Z,7.6
2022-11-07T04:26:41.205Z,7.6
2022-11-07T04:28:59.154Z,7.5
2022-11-07T04:31:16.680Z,7.4
2022-11-07T04:33:34.675Z,7.1
2022-11-07T04:35:52.637Z,7.1
2022-11-07T04:38:10.695Z,3.9
2022-11-07T04:40:28.472Z,7.1
2022-11-07T04:42:46.539Z,7.5
2022-11-07T04:45:04.287Z,7.3
2022-11-07T04:47:22.297Z,7.5
2022-11-07T04:49:39.865Z,7.4
2022-11-07T04:51:57.854Z,7
2022-11-07T04:54:16.043Z,4.3
2022-11-07T04:56:34.628Z,7.8
2022-11-07T04:58:51.757Z,8.3
2022-11-07T05:01:09.667Z,8.3
2022-11-07T05:03:27.935Z,4.7
2022-11-07T05:05:45.685Z,7.9
2022-11-07T05:08:03.564Z,8.7
2022-11-07T05:10:21.628Z,8.6
2022-11-07T05:12:39.857Z,5
2022-11-07T05:14:57.717Z,8.9
2022-11-07T05:17:15.275Z,9.6
2022-11-07T05:19:33.347Z,8.4
2022-11-07T05:21:51.038Z,9.1
2022-11-07T05:24:09.082Z,8.8
2022-11-07T05:26:26.671Z,9.3
2022-11-07T05:28:44.697Z,9
2022-11-07T05:31:02.393Z,9
2022-11-07T05:33:20.359Z,9.1
2022-11-07T05:35:38.175Z,8.7
2022-11-07T05:37:55.871Z,9.1
2022-11-07T05:40:13.950Z,9.4
2022-11-07T05:42:31.603Z,9.2
2022-11-07T05:44:49.971Z,9.2
2022-11-07T05:47:07.896Z,9.3
2022-11-07T05:49:25.936Z,8.6
2022-11-07T05:51:43.759Z,8.9
2022-11-07T05:54:02.044Z,5.9
2022-11-07T05:56:20.030Z,5.9
2022-11-07T05:58:38.201Z,10.6
2022-11-07T06:00:56.007Z,9.1
2022-11-07T06:03:13.809Z,10.4
2022-11-07T06:05:31.459Z,10.5
2022-11-07T06:07:49.373Z,10.1
2022-11-07T06:10:07.246Z,10.9
2022-11-07T06:12:25.023Z,10.3
2022-11-07T06:14:43.097Z,10.8
2022-11-07T06:17:00.795Z,10.3
2022-11-07T06:19:18.880Z,11
2022-11-07T06:21:36.673Z,10.9
2022-11-07T06:23:54.534Z,11.7
2022-11-07T06:26:12.712Z,10.9
2022-11-07T06:28:30.609Z,7.3
2022-11-07T06:30:48.638Z,11.3
2022-11-07T06:33:06.446Z,11.8
2022-11-07T06:35:24.466Z,11.4
2022-11-07T06:37:42.178Z,11.6
2022-11-07T06:40:00.460Z,12.1
2022-11-07T06:42:18.547Z,7.8
2022-11-07T06:44:36.710Z,7.6
2022-11-07T06:46:54.847Z,11.8
2022-11-07T06:49:12.267Z,11.9
2022-11-07T06:51:30.262Z,12.3
2022-11-07T06:53:47.988Z,11.5
2022-11-07T06:56:06.149Z,11.7
2022-11-07T06:58:23.900Z,12
2022-11-07T07:00:41.828Z,11.6
2022-11-07T07:03:16.118Z,11.3
2022-11-07T07:05:34.006Z,7.2
2022-11-07T07:07:51.649Z,11.4
2022-11-07T07:10:09.477Z,11.1
2022-11-07T07:12:27.583Z,11.9
2022-11-07T07:14:44.984Z,12.4
2022-11-07T07:17:08.399Z,11.7
2022-11-07T07:19:26.191Z,12.6
2022-11-07T07:21:43.865Z,12.1
2022-11-07T07:24:01.592Z,12.3
2022-11-07T07:26:19.436Z,12.5
2022-11-07T07:28:37.374Z,12.4
2022-11-07T07:30:55.117Z,12.7
2022-11-07T07:33:13.316Z,11.9
2022-11-07T07:35:30.973Z,12.7
2022-11-07T07:37:48.973Z,12.4
2022-11-07T07:40:06.837Z,12.9
2022-11-07T07:42:24.804Z,13.6
2022-11-07T07:44:42.635Z,13.3
2022-11-07T07:47:00.415Z,13.4
2022-11-07T07:49:18.315Z,13.4
2022-11-07T07:51:36.146Z,13.3
2022-11-07T07:53:54.127Z,13.8
2022-11-07T07:56:11.990Z,13.8
2022-11-07T07:58:30.110Z,14.4
2022-11-07T08:00:48.095Z,14.4
2022-11-07T08:03:05.831Z,9.3
2022-11-07T08:05:34.686Z,13.6
2022-11-07T08:07:52.603Z,13.6
2022-11-07T08:10:35.420Z,14.1
2022-11-07T08:12:44.854Z,14.8
2022-11-07T08:15:02.792Z,9.9
2022-11-07T08:17:20.736Z,14.7
2022-11-07T08:19:38.646Z,13.8
2022-11-07T08:21:56.484Z,14.4
2022-11-07T08:24:14.680Z,15
2022-11-07T08:26:32.530Z,11.5
2022-11-07T08:28:50.457Z,16.3
2022-11-07T08:31:08.333Z,17.3
2022-11-07T08:33:26.335Z,17.8
2022-11-07T08:35:44.190Z,20.1
2022-11-07T08:38:02.096Z,22.6
2022-11-07T08:40:20.273Z,24.4
2022-11-07T08:42:38.348Z,17.1
2022-11-07T08:44:56.297Z,15.4
2022-11-07T08:47:14.475Z,19.3
2022-11-07T08:49:32.523Z,18.6
2022-11-07T08:51:50.353Z,18.8
2022-11-07T08:54:08.173Z,18.9
2022-11-07T08:56:26.226Z,18.6
2022-11-07T08:58:44.326Z,18.6
2022-11-07T09:01:02.299Z,14.9
2022-11-07T09:04:38.563Z,22.4
2022-11-07T09:06:56.760Z,22.9
2022-11-07T09:09:16.721Z,17.1
2022-11-07T09:11:32.570Z,21.5
2022-11-07T09:13:50.608Z,23.3
2022-11-07T09:16:08.386Z,21.8
2022-11-07T09:18:26.289Z,20.1
2022-11-07T09:20:44.123Z,19.3
2022-11-07T09:23:02.038Z,19.2
2022-11-07T09:25:20.214Z,18.9
2022-11-07T09:27:37.870Z,19.4
2022-11-07T09:29:55.754Z,18
2022-11-07T09:32:38.596Z,16.7
2022-11-07T09:34:52.489Z,16.3
2022-11-07T09:37:06.559Z,12
2022-11-07T09:39:24.456Z,11
2022-11-07T09:41:42.260Z,15.6
2022-11-07T09:44:00.215Z,14.9
2022-11-07T09:46:18.069Z,15.6
2022-11-07T09:48:35.990Z,14.8
2022-11-07T09:50:54.148Z,14.8
2022-11-07T09:53:11.880Z,15.9
2022-11-07T09:55:29.741Z,15.1
2022-11-07T09:57:47.537Z,15.2
2022-11-07T10:00:05.456Z,14.8
2022-11-07T10:02:23.481Z,14.8
2022-11-07T10:04:58.514Z,14.7
2022-11-07T10:07:16.298Z,15.4
2022-11-07T10:09:34.491Z,16.1
2022-11-07T10:11:52.416Z,15.6
2022-11-07T10:14:10.324Z,15.6
2022-11-07T10:16:28.913Z,15.6
2022-11-07T10:18:46.491Z,17.6
2022-11-07T10:21:35.616Z,19.3
2022-11-07T10:23:41.293Z,22.6
2022-11-07T10:25:59.409Z,22.8
2022-11-07T10:28:17.244Z,21.3
2022-11-07T10:30:35.221Z,21.8
2022-11-07T10:32:53.241Z,16.6
2022-11-07T10:35:11.172Z,22.8
2022-11-07T10:37:28.832Z,23.4
2022-11-07T10:39:46.721Z,21.5
2022-11-07T10:42:04.674Z,23.2
2022-11-07T10:44:22.288Z,26.2
2022-11-07T10:46:39.824Z,22.7
2022-11-07T10:48:57.599Z,22.6
2022-11-07T10:51:15.317Z,25.1
2022-11-07T10:53:33.031Z,26.7
2022-11-07T10:55:50.561Z,28.5
2022-11-07T10:58:08.151Z,28.8
2022-11-07T11:00:25.812Z,29.7
2022-11-07T11:02:43.470Z,32.3
2022-11-07T11:05:01.858Z,31.4
2022-11-07T11:07:21.945Z,30.7
2022-11-07T11:09:36.971Z,26.9
2022-11-07T11:11:54.511Z,24.2
2022-11-07T11:14:12.123Z,21.9
2022-11-07T11:16:29.549Z,20.8
2022-11-07T11:18:47.194Z,20.7
2022-11-07T11:21:04.838Z,20.4
2022-11-07T11:23:22.355Z,19.3
2022-11-07T11:25:39.886Z,19.8
2022-11-07T11:27:57.750Z,20.3
2022-11-07T11:30:15.269Z,20.4
2022-11-07T11:32:32.650Z,19.8
2022-11-07T11:34:50.322Z,19.4
2022-11-07T11:37:07.895Z,19.4
2022-11-07T11:39:25.598Z,18.9
2022-11-07T11:41:43.100Z,19
2022-11-07T11:44:00.542Z,18.4
2022-11-07T11:46:18.268Z,18.4
2022-11-07T11:48:35.916Z,19
2022-11-07T11:50:53.426Z,17.9
2022-11-07T11:53:11.264Z,17.4
2022-11-07T11:55:28.658Z,18.4
2022-11-07T11:57:46.902Z,18.1
2022-11-07T12:00:05.023Z,12.6
2022-11-07T12:02:23.430Z,12.5
2022-11-07T12:04:41.032Z,12.7
2022-11-07T12:06:59.273Z,18.6
2022-11-07T12:09:18.436Z,13
2022-11-07T12:11:35.644Z,12.7
2022-11-07T12:13:54.251Z,12.6
2022-11-07T12:16:12.245Z,12.4
2022-11-07T12:18:30.971Z,12.1
2022-11-07T12:20:49.005Z,11.9
2022-11-07T12:23:07.479Z,12.3
2022-11-07T12:25:25.669Z,11.9
2022-11-07T12:27:44.158Z,12.3
2022-11-07T12:30:02.404Z,12.3
2022-11-07T12:32:20.464Z,12.5
2022-11-07T12:34:39.125Z,12.6
2022-11-07T12:36:57.354Z,12.4
2022-11-07T12:39:15.739Z,12.8
2022-11-07T12:41:34.026Z,12.3
2022-11-07T12:43:52.456Z,11.9
2022-11-07T12:46:10.698Z,12.1
2022-11-07T12:48:29.261Z,11.9
2022-11-07T12:50:47.394Z,11.8
2022-11-07T12:53:06.223Z,11.9
2022-11-07T12:55:24.211Z,11.6
2022-11-07T12:57:42.424Z,11.9
2022-11-07T13:00:01.057Z,11.7
2022-11-07T13:02:19.335Z,12.1
2022-11-07T13:04:37.594Z,11.6
2022-11-07T13:06:55.830Z,11.6
2022-11-07T13:09:14.378Z,11.8
2022-11-07T13:11:32.468Z,11.3
2022-11-07T13:13:51.038Z,11.5
2022-11-07T13:16:31.505Z,11.6
2022-11-07T13:18:49.704Z,11.3
2022-11-07T13:21:07.980Z,11.2
2022-11-07T13:23:26.267Z,11.4
2022-11-07T13:25:44.791Z,11.4
2022-11-07T13:28:20.647Z,11.6
2022-11-07T13:30:38.782Z,11.1
2022-11-07T13:32:57.070Z,11
2022-11-07T13:35:15.266Z,10.9
2022-11-07T13:37:33.535Z,11.1
2022-11-07T13:39:51.835Z,11
2022-11-07T13:42:10.045Z,11.2
2022-11-07T13:44:28.304Z,11.1
2022-11-07T13:46:46.543Z,11.3
2022-11-07T13:49:04.769Z,10.9
2022-11-07T13:51:23.329Z,10.6
2022-11-07T13:53:41.261Z,10.9
2022-11-07T13:55:59.640Z,10.6
2022-11-07T13:58:17.795Z,10.5
2022-11-07T14:00:36.076Z,10.4
2022-11-07T14:02:54.396Z,10.6
2022-11-07T14:05:28.647Z,10.3
2022-11-07T14:07:46.842Z,10.5
2022-11-07T14:10:05.161Z,10.5
2022-11-07T14:12:23.607Z,10.4
2022-11-07T14:14:41.827Z,10.1
2022-11-07T14:17:00.828Z,10.3
2022-11-07T14:19:18.602Z,10.4
2022-11-07T14:21:37.083Z,10.4
2022-11-07T14:23:55.277Z,10.6
2022-11-07T14:26:13.816Z,9.9
2022-11-07T14:28:31.628Z,9.9
2022-11-07T14:30:49.757Z,16.4
2022-11-07T14:33:07.919Z,10.1
2022-11-07T14:35:25.649Z,10
2022-11-07T14:37:43.567Z,15.1
2022-11-07T14:40:01.208Z,15.1
2022-11-07T14:42:19.015Z,15
2022-11-07T14:45:00.189Z,14.8
2022-11-07T14:47:31.916Z,15
2022-11-07T14:49:49.556Z,14.4
2022-11-07T14:52:07.475Z,14.8
2022-11-07T14:54:25.098Z,9.7
2022-11-07T14:56:42.706Z,14.5
2022-11-07T14:59:00.320Z,14.7
2022-11-07T15:01:18.135Z,14.4
2022-11-07T15:03:35.470Z,14.3
2022-11-07T15:05:53.189Z,14.3
2022-11-07T15:08:10.901Z,14.1
2022-11-07T15:10:28.402Z,15.1
2022-11-07T15:12:45.906Z,14
2022-11-07T15:15:03.521Z,13.9
2022-11-07T15:17:21.138Z,13.9
2022-11-07T15:19:38.700Z,14
2022-11-07T15:21:57.551Z,14.5
2022-11-07T15:24:15.934Z,14
2022-11-07T15:26:32.626Z,14
2022-11-07T15:28:50.210Z,13.6
2022-11-07T15:31:10.130Z,13.4
2022-11-07T15:33:26.000Z,12.8
2022-11-07T15:36:17.992Z,12.4
2022-11-07T15:38:35.915Z,12.6
2022-11-07T15:40:53.896Z,12.6
2022-11-07T15:43:11.869Z,12.5
2022-11-07T15:45:29.750Z,12.3
2022-11-07T15:47:47.978Z,12.4
2022-11-07T15:50:05.756Z,12.2
2022-11-07T15:52:23.651Z,12.4
2022-11-07T15:54:41.632Z,12.2
2022-11-07T15:56:59.657Z,12.3
2022-11-07T15:59:18.111Z,8.4
2022-11-07T16:01:35.947Z,8.4
2022-11-07T16:03:53.768Z,12.9
2022-11-07T16:06:11.723Z,12
2022-11-07T16:08:29.574Z,12.3
2022-11-07T16:10:47.513Z,12.9
2022-11-07T16:13:05.467Z,12.7
2022-11-07T16:15:42.175Z,12.8
2022-11-07T16:18:00.032Z,12.8
2022-11-07T16:20:17.943Z,11.9
2022-11-07T16:22:35.821Z,12.2
2022-11-07T16:24:54.060Z,11.4
2022-11-07T16:27:11.799Z,12.8
2022-11-07T16:29:29.688Z,7.9
2022-11-07T16:31:47.614Z,11.8
2022-11-07T16:34:05.587Z,12.6
2022-11-07T16:36:23.579Z,11.9
2022-11-07T16:38:41.517Z,11.6
2022-11-07T16:40:59.486Z,11.8
2022-11-07T16:43:17.362Z,12
2022-11-07T16:45:35.226Z,11.9
2022-11-07T16:47:53.116Z,11.8
2022-11-07T16:50:11.127Z,11.2
2022-11-07T16:52:29.102Z,11.6
2022-11-07T16:54:47.030Z,11.5
2022-11-07T16:57:04.915Z,11.5
2022-11-07T16:59:22.856Z,11.3
2022-11-07T17:01:40.935Z,11.4
2022-11-07T17:03:58.755Z,11.9
2022-11-07T17:06:16.673Z,11.5
2022-11-07T17:08:34.567Z,11.3
2022-11-07T17:10:52.815Z,11.2
2022-11-07T17:13:10.489Z,11.6
2022-11-07T17:15:28.413Z,11
2022-11-07T17:17:46.274Z,11.4
2022-11-07T17:20:04.310Z,11
2022-11-07T17:22:30.925Z,11.3
2022-11-07T17:24:48.888Z,10.7
2022-11-07T17:27:06.808Z,10.9
2022-11-07T17:29:24.730Z,10.9
2022-11-07T17:31:42.778Z,10.9
2022-11-07T17:34:00.808Z,10.5
2022-11-07T17:36:37.340Z,6.9
2022-11-07T17:38:53.187Z,10.9
2022-11-07T17:41:11.166Z,11.7
2022-11-07T17:43:29.194Z,10.6
2022-11-07T17:45:47.240Z,6.8
2022-11-07T17:48:05.135Z,10.7
2022-11-07T17:50:23.090Z,10.5
2022-11-07T17:52:41.073Z,11.1
2022-11-07T17:54:58.986Z,10.3
2022-11-07T17:57:16.967Z,10.5
2022-11-07T17:59:34.902Z,10.9
2022-11-07T18:01:53.128Z,10.4
2022-11-07T18:04:10.819Z,11.2
2022-11-07T18:06:28.998Z,11.1
2022-11-07T18:08:54.388Z,10.8
2022-11-07T18:11:11.719Z,11.1
2022-11-07T18:13:29.801Z,10.4
2022-11-07T18:15:47.887Z,6.4
2022-11-07T18:18:10.719Z,6.2
2022-11-07T18:20:23.867Z,10.6
2022-11-07T18:22:41.907Z,10.4
2022-11-07T18:24:59.848Z,10.4
2022-11-07T18:27:17.945Z,11.3
2022-11-07T18:29:35.997Z,6.5
2022-11-07T18:31:53.881Z,10.3
2022-11-07T18:34:11.913Z,10.7
2022-11-07T18:36:29.747Z,10.2
2022-11-07T18:38:47.710Z,10.4
2022-11-07T18:41:05.689Z,10.3
2022-11-07T18:43:23.581Z,10.1
2022-11-07T18:45:41.633Z,10.2
2022-11-07T18:47:59.825Z,9.9
2022-11-07T18:50:17.540Z,10.3
2022-11-07T18:52:35.611Z,10.3
2022-11-07T18:54:53.648Z,5.9
2022-11-07T18:57:11.570Z,10.2
2022-11-07T18:59:29.656Z,10.9
2022-11-07T19:01:47.717Z,10.4
2022-11-07T19:04:05.481Z,10.3
2022-11-07T19:06:23.470Z,10.8
2022-11-07T19:08:41.301Z,10.3
2022-11-07T19:10:59.271Z,10.4
2022-11-07T19:13:17.214Z,10.4
2022-11-07T19:15:35.231Z,10.6
2022-11-07T19:17:53.198Z,10.8
2022-11-07T19:20:11.178Z,10.5
2022-11-07T19:22:29.034Z,10.1
2022-11-07T19:24:47.033Z,10.8
2022-11-07T19:27:04.939Z,10.5
2022-11-07T19:29:22.961Z,10.1
2022-11-07T19:31:40.870Z,10.1
2022-11-07T19:33:59.018Z,10.6
2022-11-07T19:36:16.824Z,10.8
2022-11-07T19:38:34.736Z,10.3
2022-11-07T19:40:52.642Z,10.2
2022-11-07T19:43:10.651Z,10.6
2022-11-07T19:45:28.615Z,9.9
2022-11-07T19:47:46.579Z,10.5
2022-11-07T19:50:04.505Z,10.6
2022-11-07T19:52:22.606Z,10.3
2022-11-07T19:54:40.445Z,10.8
2022-11-07T19:56:58.363Z,10.7
2022-11-07T19:59:16.314Z,10.9
2022-11-07T20:01:34.494Z,11
2022-11-07T20:04:18.517Z,10.5
2022-11-07T20:06:36.451Z,10.9
2022-11-07T20:08:54.390Z,10.8
2022-11-07T20:11:12.288Z,10.3
2022-11-07T20:13:30.243Z,10.4
2022-11-07T20:15:48.105Z,10.6
2022-11-07T20:18:06.091Z,10.1
2022-11-07T20:20:24.222Z,10.4
2022-11-07T20:22:46.093Z,6.4
2022-11-07T20:25:00.518Z,10.6
2022-11-07T20:27:18.182Z,6.8
2022-11-07T20:29:36.102Z,11.1
2022-11-07T20:31:54.017Z,10.6
2022-11-07T20:34:11.884Z,10.4
2022-11-07T20:36:30.120Z,10.7
2022-11-07T20:38:47.861Z,6.7
2022-11-07T20:41:05.734Z,11.1
2022-11-07T20:43:23.527Z,10.6
2022-11-07T20:45:41.565Z,10
2022-11-07T20:47:59.473Z,6.5
2022-11-07T20:50:17.272Z,10.6
2022-11-07T20:52:35.116Z,10
2022-11-07T20:54:53.097Z,10.8
2022-11-07T20:57:11.028Z,10.1
2022-11-07T20:59:28.806Z,10.6
2022-11-07T21:01:46.709Z,10.1
2022-11-07T21:04:04.674Z,10.3
2022-11-07T21:06:36.730Z,10.6
2022-11-07T21:08:54.713Z,10.1
2022-11-07T21:11:12.835Z,10.9
2022-11-07T21:13:30.491Z,11
2022-11-07T21:15:48.248Z,9.9
2022-11-07T21:18:06.401Z,10.1
2022-11-07T21:20:24.281Z,6.4
2022-11-07T21:22:42.327Z,10.7
2022-11-07T21:25:00.022Z,10.9
2022-11-07T21:27:18.066Z,10.6
2022-11-07T21:29:35.893Z,10.3
2022-11-07T21:31:53.763Z,10.3
2022-11-07T21:34:11.733Z,9.9
2022-11-07T21:36:29.906Z,10.1
2022-11-07T21:38:47.503Z,11.4
2022-11-07T21:41:05.336Z,10.4
2022-11-07T21:43:23.383Z,10.2
2022-11-07T21:45:41.308Z,6.7
2022-11-07T21:47:59.422Z,11.2
2022-11-07T21:50:38.163Z,10.6
2022-11-07T21:52:47.857Z,10.8
2022-11-07T21:55:05.900Z,11.1
2022-11-07T21:57:23.814Z,11.2
2022-11-07T21:59:41.594Z,10.3
2022-11-07T22:01:59.826Z,11
2022-11-07T22:04:37.746Z,11.4
2022-11-07T22:06:55.587Z,10.8
2022-11-07T22:09:13.545Z,10.4
2022-11-07T22:11:31.383Z,10.2
2022-11-07T22:13:49.435Z,10.8
2022-11-07T22:16:07.800Z,6.6
2022-11-07T22:18:25.741Z,6.6
2022-11-07T22:20:43.613Z,10.3
2022-11-07T22:23:01.514Z,10.6
2022-11-07T22:25:19.468Z,10.4
2022-11-07T22:27:37.429Z,10
2022-11-07T22:29:55.061Z,10.9
2022-11-07T22:32:12.991Z,10.4
2022-11-07T22:34:31.276Z,9.8
2022-11-07T22:36:48.973Z,6.3
2022-11-07T22:39:06.999Z,11.3
2022-11-07T22:41:24.767Z,10.4
2022-11-07T22:43:42.647Z,10.5
2022-11-07T22:46:00.516Z,10.7
2022-11-07T22:48:18.311Z,10.5
2022-11-07T22:50:36.222Z,10.4
2022-11-07T22:52:54.385Z,10.7
2022-11-07T22:55:12.579Z,6.4
2022-11-07T22:57:30.849Z,6.6
2022-11-07T22:59:49.146Z,6.2
2022-11-07T23:02:09.438Z,6.5
2022-11-07T23:04:31.597Z,9.9
2022-11-07T23:06:45.152Z,11.1
2022-11-07T23:09:03.302Z,10.4
2022-11-07T23:11:46.812Z,6.4
2022-11-07T23:13:56.365Z,10.2
2022-11-07T23:16:14.361Z,10.5
2022-11-07T23:18:32.245Z,10.8
2022-11-07T23:20:50.129Z,10.7
2022-11-07T23:23:08.128Z,10.3
2022-11-07T23:25:26.003Z,10.4
2022-11-07T23:27:43.986Z,9.8
2022-11-07T23:30:01.960Z,6.1
2022-11-07T23:32:19.866Z,10.6
2022-11-07T23:34:37.644Z,10.1
2022-11-07T23:36:55.480Z,9.4
2022-11-07T23:39:13.484Z,9.4
2022-11-07T23:41:31.206Z,11.4
2022-11-07T23:43:52.424Z,10.3
2022-11-07T23:46:06.939Z,10.1
2022-11-07T23:48:24.647Z,10.4
2022-11-07T23:50:42.532Z,10
2022-11-07T23:53:00.474Z,10.3
2022-11-07T23:55:18.536Z,10.8
2022-11-07T23:57:36.321Z,6.1
2022-11-07T23:59:54.284Z,10.4
